Gering, NE (69341)

6:25 PM MST on February 11, 2016 (GMT -0700)
Meadows | | Change Station
CLOSE
Current Station
Personal Weather Station
Location: Gering, NE
Elevation: 3999 ft
Nearby Weather Stations

Elev 3999 ft 41.82 °N, 103.68 °W | Updated 11 minutes ago

Partly Cloudy
Partly Cloudy
48.9 °F
Feels Like 48 °F
N
3.2
Wind Variable Wind from WNW

Today
High -- | Low -- °F
--% Chance of Precip.
Yesterday
High -- | Low -- °F
Precip. -- in
Pressure 30.22 in
Visibility 10.0 miles
Clouds Clear
Windchill 48 °F
Dew Point 30 °F
Humidity 48%
Rainfall 0.00 in
Snow Depth Not available.
6:56 AM 5:22 PM
Waxing Crescent, 16% visible
METAR KBFF 120053Z AUTO 34004KT 10SM CLR 06/M03 A3018 RMK AO2 SLP234 T00561028
Pressure 30.22 in
Visibility 10.0 miles
Clouds Clear
Windchill 48 °F
Dew Point 30 °F
Humidity 48%
Rainfall 0.00 in
Snow Depth Not available.
6:56 AM 5:22 PM
Waxing Crescent, 16% visible
METAR KBFF 120053Z AUTO 34004KT 10SM CLR 06/M03 A3018 RMK AO2 SLP234 T00561028

10-Day Weather Forecast

Almanac

Astronomy

Feb. 11, 2016 Rise Set
Actual Time
Civil Twilight
Nautical Twilight
Astronomical Twilight
Moon
Length of Visible Light
Length of Day
Tomorrow will be .
, % of the Moon is Illuminated

Today's Extremes

State Highs State Lows

Community

WunderPhotos

Upload Photos

1,892,205 photos uploaded!

WunderBlog® & News

Nearby

Air Quality

  Air Quality AQ Index Pollutant
Not available.

Snow Depth

Station Depth Elevation

Earthquake Activity

City Distance Mag. Time & Date
Minimum magnitude displayed is 2.5.

Coastal Water Temperatures

Place Temperature

Stations

Nearby Weather Stations

Station Location Temp. Windchill Dew Point Humidity Wind Precip. Elev Updated Type
                   

Watches & Warnings

There are currently no watches in effect.